Time;durP1;ratioP1;P1;durP2;ratioP2;P2;SDS_P1;SDS_P2;PMS_P1;PMS_P2;Temp;Humidity;BMP_temperature;BMP_pressure;BME280_temperature;BME280_humidity;BME280_pressure;Samples;Min_cycle;Max_cycle;Signal;HPM_P1;HPM_P2
2022/10/17 04:49:05;;;;;;;;;6.00;6.00;;;;;18.94;64.14;101336.97;5096794;27;45963;-73
2022/10/17 04:51:30;;;;;;;;;5.67;5.67;;;;;19.08;64.38;101338.56;4987686;27;45604;-73
2022/10/17 04:53:56;;;;;;;;;3.67;3.67;;;;;19.29;64.04;101351.28;4991447;27;45903;-74
2022/10/17 04:56:23;;;;;;;;;4.67;4.67;;;;;19.56;64.32;101358.06;4987596;27;45508;-75
2022/10/17 04:58:49;;;;;;;;;5.00;5.00;;;;;19.86;64.06;101360.03;4985038;27;46066;-74
2022/10/17 05:01:17;;;;;;;;;4.00;4.00;;;;;20.17;63.67;101363.84;4990988;27;45811;-75
2022/10/17 05:03:43;;;;;;;;;4.00;4.00;;;;;20.47;62.59;101356.81;5030863;27;45562;-75
2022/10/17 05:06:11;;;;;;;;;5.33;5.00;;;;;20.79;62.07;101363.91;4986473;27;45857;-74
2022/10/17 05:08:36;;;;;;;;;3.00;3.00;;;;;21.08;61.91;101365.06;4988699;27;45594;-75
2022/10/17 05:11:02;;;;;;;;;3.67;3.67;;;;;21.35;61.17;101364.41;5019558;27;45346;-74
2022/10/17 05:13:28;;;;;;;;;4.00;4.00;;;;;21.63;61.10;101361.03;5063530;27;45458;-76
2022/10/17 05:16:00;;;;;;;;;4.00;4.00;;;;;21.89;59.40;101360.50;5037284;27;46846;-75
2022/10/17 05:18:26;;;;;;;;;3.33;3.33;;;;;22.13;58.95;101362.78;5035784;27;45627;-74
2022/10/17 05:20:51;;;;;;;;;4.00;4.00;;;;;22.33;58.94;101376.25;5014504;27;45466;-73
2022/10/17 05:23:17;;;;;;;;;4.67;4.67;;;;;22.50;57.99;101363.84;5000253;27;51714;-74
2022/10/17 05:25:42;;;;;;;;;3.33;3.33;;;;;22.68;57.61;101384.75;4994050;27;47979;-73
2022/10/17 05:28:07;;;;;;;;;4.67;4.67;;;;;22.82;57.30;101378.88;5007455;27;46167;-74
2022/10/17 05:30:34;;;;;;;;;4.00;3.67;;;;;22.95;56.42;101381.25;5004225;27;48510;-74
2022/10/17 05:32:59;;;;;;;;;3.33;3.33;;;;;23.08;56.36;101380.03;5032186;27;45492;-73
2022/10/17 05:35:24;;;;;;;;;4.00;4.00;;;;;23.15;56.03;101384.72;4996899;27;45512;-74
2022/10/17 05:37:50;;;;;;;;;4.00;4.00;;;;;23.26;55.50;101382.81;4991282;27;45484;-74
2022/10/17 05:40:15;;;;;;;;;6.00;5.00;;;;;23.35;55.45;101390.06;5014564;27;45460;-74
2022/10/17 05:42:45;;;;;;;;;5.67;4.33;;;;;23.41;55.22;101394.00;5050256;27;45933;-73
2022/10/17 05:45:11;;;;;;;;;4.00;4.00;;;;;23.45;54.98;101373.72;5030174;27;46214;-74
2022/10/17 05:47:36;;;;;;;;;5.67;4.67;;;;;23.57;54.97;101357.25;4998155;27;58416;-74
2022/10/17 05:50:01;;;;;;;;;5.00;5.00;;;;;23.63;54.63;101348.50;5014829;27;47436;-74
2022/10/17 05:52:26;;;;;;;;;5.00;5.00;;;;;23.68;54.38;101376.84;5021837;27;45432;-73
2022/10/17 05:54:52;;;;;;;;;4.00;3.67;;;;;23.71;54.03;101377.53;5000999;27;45515;-73
2022/10/17 05:57:17;;;;;;;;;3.33;3.33;;;;;23.77;53.95;101383.19;5001784;27;64017;-73
2022/10/17 05:59:42;;;;;;;;;4.00;4.00;;;;;23.77;54.21;101364.22;4994019;27;45435;-73
2022/10/17 06:02:11;;;;;;;;;3.33;3.33;;;;;23.80;53.64;101363.06;4992506;27;49441;-73
2022/10/17 06:04:36;;;;;;;;;3.67;3.67;;;;;23.85;53.68;101370.72;4999065;27;45386;-72
2022/10/17 06:07:02;;;;;;;;;4.00;3.00;;;;;23.91;53.47;101372.81;4999677;27;46929;-73
2022/10/17 06:09:27;;;;;;;;;5.00;5.00;;;;;23.94;53.53;101376.06;5033610;27;45564;-74
2022/10/17 06:11:53;;;;;;;;;4.00;4.00;;;;;23.94;53.58;101383.34;4987022;27;45439;-78
2022/10/17 06:14:18;;;;;;;;;3.67;3.67;;;;;23.95;53.76;101375.06;5016888;27;47061;-75
2022/10/17 06:16:43;;;;;;;;;5.67;5.67;;;;;23.93;53.26;101376.22;5037240;27;45405;-75
2022/10/17 06:19:10;;;;;;;;;5.00;3.67;;;;;23.94;53.15;101388.75;4987985;27;61215;-75
2022/10/17 06:21:37;;;;;;;;;4.67;3.00;;;;;23.93;52.97;101395.19;4989105;27;45486;-75
2022/10/17 06:24:02;;;;;;;;;6.00;4.00;;;;;23.93;53.13;101415.03;5000671;27;45539;-75
2022/10/17 06:26:28;;;;;;;;;5.00;5.00;;;;;23.95;52.84;101404.03;5004346;27;45791;-75
2022/10/17 06:28:54;;;;;;;;;4.00;3.67;;;;;23.91;52.81;101414.31;4987440;27;45316;-76
2022/10/17 06:31:19;;;;;;;;;6.00;3.67;;;;;23.87;52.84;101414.81;5024030;27;45431;-75
2022/10/17 06:33:44;;;;;;;;;5.00;5.00;;;;;23.87;52.78;101428.34;5004425;27;45945;-75
2022/10/17 06:36:13;;;;;;;;;6.33;6.00;;;;;23.83;52.84;101430.53;5051303;27;45337;-75
2022/10/17 06:38:39;;;;;;;;;7.33;6.00;;;;;23.82;52.79;101424.25;4993000;27;45719;-75
2022/10/17 06:41:07;;;;;;;;;5.00;5.00;;;;;23.80;52.63;101430.81;4986490;27;45817;-76
2022/10/17 06:43:35;;;;;;;;;5.00;4.00;;;;;23.79;52.74;101435.38;4984581;27;45716;-74
2022/10/17 06:46:00;;;;;;;;;4.33;4.33;;;;;23.81;53.08;101435.22;4987970;27;45444;-74
2022/10/17 06:48:25;;;;;;;;;3.00;3.00;;;;;23.83;52.59;101452.22;4993481;27;45424;-80
2022/10/17 06:50:50;;;;;;;;;7.00;5.67;;;;;23.84;52.80;101448.50;5026900;27;45523;-80
2022/10/17 06:53:16;;;;;;;;;5.00;3.33;;;;;23.83;52.81;101457.63;4996998;27;50834;-80
2022/10/17 06:55:41;;;;;;;;;4.00;4.00;;;;;23.79;52.75;101462.47;5014939;27;50033;-79
2022/10/17 06:58:07;;;;;;;;;5.00;5.00;;;;;23.83;52.64;101479.31;5007185;27;45363;-79
2022/10/17 07:00:32;;;;;;;;;4.67;3.67;;;;;23.82;53.38;101473.03;4986400;27;45841;-79
2022/10/17 07:02:57;;;;;;;;;3.67;3.67;;;;;23.81;52.95;101471.34;5029098;27;45566;-79
2022/10/17 07:05:23;;;;;;;;;6.33;5.00;;;;;23.81;52.66;101487.59;5008230;27;51884;-80
2022/10/17 07:07:48;;;;;;;;;4.33;4.33;;;;;23.85;53.27;101504.41;4992194;27;52418;-79
2022/10/17 07:10:13;;;;;;;;;5.00;3.00;;;;;23.85;53.36;101517.97;4990511;27;45695;-78
2022/10/17 07:12:38;;;;;;;;;4.00;3.67;;;;;23.85;53.01;101517.97;4977346;27;50883;-78
2022/10/17 07:15:04;;;;;;;;;4.00;4.00;;;;;23.87;52.99;101523.22;4986598;27;45961;-78
2022/10/17 07:17:30;;;;;;;;;3.33;3.33;;;;;23.88;53.25;101527.66;5036999;27;45441;-78
2022/10/17 07:19:55;;;;;;;;;3.00;3.00;;;;;23.87;53.16;101529.50;4987569;27;45626;-78
2022/10/17 07:22:21;;;;;;;;;4.67;3.67;;;;;23.90;53.21;101531.03;5006853;27;47028;-79
2022/10/17 07:24:46;;;;;;;;;5.00;5.00;;;;;23.90;53.33;101540.03;4991522;27;45706;-79
2022/10/17 07:27:13;;;;;;;;;2.67;2.67;;;;;23.95;53.33;101545.03;5013490;27;57735;-79
2022/10/17 07:29:38;;;;;;;;;5.67;3.00;;;;;23.98;53.34;101547.41;4994278;27;45459;-80
2022/10/17 07:32:07;;;;;;;;;5.33;4.00;;;;;24.01;53.25;101560.69;4996465;27;45401;-80
2022/10/17 07:34:33;;;;;;;;;3.33;3.33;;;;;24.02;53.37;101558.78;5004995;27;47095;-78
2022/10/17 07:36:59;;;;;;;;;4.33;4.33;;;;;23.97;53.06;101558.41;5062336;27;45401;-80
2022/10/17 07:39:24;;;;;;;;;3.00;3.00;;;;;24.03;53.52;101580.34;5001099;27;45327;-81
2022/10/17 07:41:49;;;;;;;;;3.33;3.00;;;;;24.05;53.32;101582.91;5027873;27;46691;-82
2022/10/17 07:44:15;;;;;;;;;3.50;3.50;;;;;24.06;52.85;101585.47;4998607;27;47147;-80
2022/10/17 07:46:40;;;;;;;;;5.00;4.00;;;;;24.10;53.30;101599.59;4979644;28;46023;-80
2022/10/17 07:49:06;;;;;;;;;3.33;3.33;;;;;24.11;53.32;101603.19;4993298;27;45575;-80
2022/10/17 07:51:31;;;;;;;;;3.00;3.00;;;;;24.15;53.31;101616.28;5028863;27;56878;-79
2022/10/17 07:53:56;;;;;;;;;3.33;3.33;;;;;24.15;53.37;101620.88;5000186;27;46365;-81
2022/10/17 07:56:23;;;;;;;;;2.33;2.33;;;;;24.17;53.49;101616.13;4986400;28;45460;-79
2022/10/17 07:58:50;;;;;;;;;3.33;3.33;;;;;24.21;53.07;101631.94;4975859;27;45396;-78
2022/10/17 08:01:16;;;;;;;;;3.00;3.00;;;;;24.23;53.05;101633.66;4984004;27;45471;-78
2022/10/17 08:03:46;;;;;;;;;3.00;3.00;;;;;24.26;53.13;101630.63;4982286;27;45386;-78
2022/10/17 08:06:12;;;;;;;;;3.33;3.00;;;;;24.28;53.03;101631.34;4989297;27;45446;-79
2022/10/17 08:08:37;;;;;;;;;2.67;2.67;;;;;24.28;53.09;101626.75;5058794;27;45734;-79
2022/10/17 08:11:08;;;;;;;;;6.00;3.00;;;;;24.25;53.22;101620.78;4981502;27;45413;-78
2022/10/17 08:13:34;;;;;;;;;4.00;4.00;;;;;24.30;53.06;101637.47;4982062;27;46229;-86
2022/10/17 08:16:03;;;;;;;;;4.00;4.00;;;;;24.31;53.24;101633.72;4973171;28;45524;-78
2022/10/17 08:18:28;;;;;;;;;4.00;4.00;;;;;24.32;52.96;101635.47;4976476;28;46153;-79
2022/10/17 08:20:54;;;;;;;;;4.67;4.33;;;;;24.32;53.14;101636.31;4978452;27;45552;-78
2022/10/17 08:23:19;;;;;;;;;4.00;4.00;;;;;24.30;52.74;101643.75;4976360;27;45533;-77
2022/10/17 08:25:44;;;;;;;;;3.33;3.33;;;;;24.30;52.54;101642.88;4983538;27;45517;-78
2022/10/17 08:28:10;;;;;;;;;3.00;3.00;;;;;24.29;52.49;101644.75;4971700;27;45687;-78
2022/10/17 08:30:35;;;;;;;;;3.00;3.00;;;;;24.26;53.12;101639.63;5011270;27;45528;-81
2022/10/17 08:33:00;;;;;;;;;3.00;3.00;;;;;24.28;52.38;101642.19;4973981;27;45443;-79
2022/10/17 08:35:26;;;;;;;;;4.00;4.00;;;;;24.27;52.90;101651.34;4967273;28;45757;-78
2022/10/17 08:37:52;;;;;;;;;4.00;4.00;;;;;24.28;52.82;101647.63;4971338;28;45479;-80
2022/10/17 08:40:32;;;;;;;;;3.00;3.00;;;;;24.27;52.76;101657.59;4973088;27;45451;-79
2022/10/17 08:43:08;;;;;;;;;2.33;2.33;;;;;24.28;52.98;101663.91;4969627;27;45540;-77
2022/10/17 08:45:44;;;;;;;;;2.00;2.00;;;;;24.28;53.41;101663.91;4978705;27;47256;-78
2022/10/17 08:48:22;;;;;;;;;4.33;3.67;;;;;24.25;52.87;101639.78;4978213;27;45430;-78
2022/10/17 08:50:52;;;;;;;;;3.67;3.67;;;;;24.28;52.87;101645.75;4975382;27;46949;-77
2022/10/17 08:53:35;;;;;;;;;2.67;2.67;;;;;24.28;52.98;101681.00;4969254;27;45605;-78
2022/10/17 08:56:12;;;;;;;;;2.33;2.33;;;;;24.30;53.09;101689.00;4979280;27;46826;-78
2022/10/17 08:58:38;;;;;;;;;3.00;3.00;;;;;24.30;53.09;101698.00;4967530;28;45480;-78
2022/10/17 09:01:27;;;;;;;;;4.00;3.67;;;;;24.30;53.18;101710.72;4974541;27;47140;-78
2022/10/17 09:03:58;;;;;;;;;3.00;3.00;;;;;24.34;53.39;101728.41;4979225;27;46132;-77
2022/10/17 09:06:31;;;;;;;;;3.00;3.00;;;;;24.36;52.94;101739.09;4968754;27;45826;-77
2022/10/17 09:09:08;;;;;;;;;3.00;3.00;;;;;24.37;53.54;101733.53;5073983;27;45510;-77
2022/10/17 09:12:00;;;;;;;;;3.00;3.00;;;;;24.41;53.32;101750.34;5007096;27;45455;-77
2022/10/17 09:15:13;;;;;;;;;5.67;4.00;;;;;24.44;52.77;101744.66;5090323;27;47656;-82
2022/10/17 09:17:38;;;;;;;;;3.00;3.00;;;;;24.44;53.28;101755.50;5047045;28;45602;-82
2022/10/17 09:20:16;;;;;;;;;2.67;2.67;;;;;24.44;53.07;101750.91;5048273;28;45586;-85
2022/10/17 09:22:50;;;;;;;;;3.33;3.00;;;;;24.41;53.09;101750.34;5063122;28;45473;-83
2022/10/17 09:25:18;;;;;;;;;3.00;3.00;;;;;24.44;53.08;101772.63;5051696;28;46327;-83
2022/10/17 09:27:49;;;;;;;;;3.33;3.33;;;;;24.47;53.18;101776.88;5044148;28;45471;-82
2022/10/17 09:30:19;;;;;;;;;3.00;3.00;;;;;24.50;52.81;101778.44;5052066;28;45625;-77
2022/10/17 09:32:46;;;;;;;;;3.00;3.00;;;;;24.49;52.68;101783.03;5053720;28;45523;-80
2022/10/17 09:35:13;;;;;;;;;3.33;3.33;;;;;24.55;51.87;101778.84;5049225;28;46063;-80
2022/10/17 09:37:40;;;;;;;;;2.33;2.33;;;;;24.53;51.68;101775.44;5039928;28;45565;-78
2022/10/17 09:40:11;;;;;;;;;4.00;4.00;;;;;24.47;51.08;101766.91;5065574;28;45495;-84
2022/10/17 09:42:38;;;;;;;;;4.67;4.00;;;;;24.54;50.82;101785.28;5054896;28;45601;-86
2022/10/17 09:45:09;;;;;;;;;4.00;4.00;;;;;24.55;51.03;101787.84;5055174;28;45540;-80
2022/10/17 09:47:44;;;;;;;;;4.00;4.00;;;;;24.52;51.45;101793.56;5054658;28;45522;-82
2022/10/17 09:50:31;;;;;;;;;6.00;6.00;;;;;24.43;51.13;101786.31;5042076;28;45413;-85
2022/10/17 09:53:01;;;;;;;;;5.00;5.00;;;;;24.40;51.10;101784.75;5051648;28;45557;-77
2022/10/17 09:55:42;;;;;;;;;5.67;5.00;;;;;24.36;51.23;101788.78;5035331;27;46458;-78
2022/10/17 09:58:08;;;;;;;;;4.00;4.00;;;;;24.32;51.56;101777.38;5023535;27;45787;-79
2022/10/17 10:00:47;;;;;;;;;4.33;4.33;;;;;24.29;51.43;101774.97;4998034;27;45415;-78
2022/10/17 10:03:15;;;;;;;;;6.00;5.00;;;;;24.31;51.63;101772.97;5005731;27;45430;-76
2022/10/17 10:05:41;;;;;;;;;7.00;5.00;;;;;24.32;51.76;101773.81;4993172;27;45433;-80
2022/10/17 10:08:18;;;;;;;;;4.33;4.33;;;;;24.34;51.98;101793.50;4993174;27;45413;-76
2022/10/17 10:10:44;;;;;;;;;8.00;6.00;;;;;24.36;51.93;101799.63;4994515;27;45530;-77
2022/10/17 10:13:12;;;;;;;;;5.33;5.33;;;;;24.38;51.62;101813.06;5007971;27;45472;-76
2022/10/17 10:15:43;;;;;;;;;10.00;9.00;;;;;24.39;51.89;101817.50;4995344;27;46094;-76
2022/10/17 10:18:23;;;;;;;;;8.00;7.67;;;;;24.42;51.96;101818.06;4993157;28;45433;-77
2022/10/17 10:21:05;;;;;;;;;11.67;8.00;;;;;24.43;51.75;101835.16;4995172;27;45449;-75
2022/10/17 10:23:30;;;;;;;;;8.67;8.67;;;;;24.46;52.05;101841.19;4994188;27;45441;-75
2022/10/17 10:26:03;;;;;;;;;9.67;8.00;;;;;24.50;52.01;101830.00;4994122;27;46757;-75
2022/10/17 10:28:31;;;;;;;;;11.33;11.00;;;;;24.51;52.17;101823.56;5004609;27;45799;-79
2022/10/17 10:31:01;;;;;;;;;11.67;11.00;;;;;24.53;51.81;101822.44;5015095;27;45392;-80
2022/10/17 10:33:29;;;;;;;;;11.67;10.00;;;;;24.56;51.90;101827.56;4987888;27;45500;-78
2022/10/17 10:36:02;;;;;;;;;12.67;9.67;;;;;24.60;51.83;101830.81;4994116;27;46001;-81
2022/10/17 10:38:30;;;;;;;;;10.67;10.00;;;;;24.61;52.01;101838.81;4993683;27;45334;-78
2022/10/17 10:41:06;;;;;;;;;9.00;9.00;;;;;24.64;52.11;101847.69;5020014;27;45548;-78
2022/10/17 10:43:42;;;;;;;;;10.67;10.00;;;;;24.64;52.21;101844.97;4993951;27;45466;-78
2022/10/17 10:46:26;;;;;;;;;11.00;11.00;;;;;24.63;52.00;101854.97;4994419;27;46736;-78
2022/10/17 10:48:57;;;;;;;;;8.33;8.33;;;;;24.62;52.07;101864.09;4992079;27;45849;-78
2022/10/17 10:51:46;;;;;;;;;7.00;7.00;;;;;24.59;52.00;101869.81;4992253;27;45289;-78
2022/10/17 10:54:18;;;;;;;;;9.67;7.00;;;;;24.55;51.89;101863.84;4982051;27;46191;-78
2022/10/17 10:56:50;;;;;;;;;7.00;7.00;;;;;24.53;51.89;101863.16;4986244;27;45606;-78
2022/10/17 10:59:25;;;;;;;;;9.67;9.00;;;;;24.50;51.93;101865.28;4987180;27;45490;-78
2022/10/17 11:02:10;;;;;;;;;9.00;8.67;;;;;24.47;52.29;101875.44;5091269;27;45369;-78
2022/10/17 11:04:48;;;;;;;;;10.00;8.00;;;;;24.48;51.64;101893.44;5001124;27;45642;-76
2022/10/17 11:07:24;;;;;;;;;13.33;10.33;;;;;24.60;51.29;101895.97;4990991;27;46236;-76
2022/10/17 11:09:55;;;;;;;;;9.67;9.67;;;;;24.74;51.09;101902.78;4985622;28;45643;-77
2022/10/17 11:12:34;;;;;;;;;12.33;10.67;;;;;24.80;50.54;101906.78;4990953;27;45545;-79
2022/10/17 11:15:19;;;;;;;;;11.33;11.33;;;;;24.86;50.84;101893.47;4986526;27;45515;-77
2022/10/17 11:18:13;;;;;;;;;10.67;9.00;;;;;24.84;49.94;101900.03;5001326;27;45455;-77
2022/10/17 11:20:57;;;;;;;;;9.67;9.67;;;;;24.78;50.15;101895.19;4992216;27;45532;-78
2022/10/17 11:23:44;;;;;;;;;12.33;11.33;;;;;24.74;50.50;101891.94;4993231;27;45450;-77
2022/10/17 11:26:24;;;;;;;;;10.00;9.00;;;;;24.79;50.38;101881.47;4993978;28;45441;-77
2022/10/17 11:28:52;;;;;;;;;13.33;10.33;;;;;24.70;50.32;101864.22;4992055;27;45499;-81
2022/10/17 11:31:20;;;;;;;;;10.00;9.33;;;;;24.65;50.43;101858.41;4992799;27;46262;-84
2022/10/17 11:33:45;;;;;;;;;12.00;10.67;;;;;24.57;50.47;101856.41;4993527;27;45456;-83
2022/10/17 11:36:13;;;;;;;;;9.33;9.33;;;;;24.53;51.31;101865.88;4997059;27;45522;-82
2022/10/17 11:38:46;;;;;;;;;17.00;13.00;;;;;24.51;51.31;101867.84;5008378;27;47426;-84
2022/10/17 11:41:21;;;;;;;;;13.00;12.00;;;;;24.52;51.37;101888.56;4992423;27;45548;-83
2022/10/17 11:43:53;;;;;;;;;11.67;11.33;;;;;24.52;51.32;101895.84;4992999;28;45492;-82
2022/10/17 11:46:24;;;;;;;;;11.67;8.33;;;;;24.53;51.31;101906.56;4987174;27;45459;-82
2022/10/17 11:49:05;;;;;;;;;10.33;9.33;;;;;24.56;51.49;101919.00;4990647;27;46580;-82
2022/10/17 11:51:47;;;;;;;;;10.00;10.00;;;;;24.57;51.67;101926.13;4991142;27;45460;-79
2022/10/17 11:54:15;;;;;;;;;12.00;9.67;;;;;24.60;51.51;101936.66;4995972;27;45431;-78
2022/10/17 11:56:48;;;;;;;;;11.00;10.33;;;;;24.65;51.68;101938.97;4982028;27;45407;-78
2022/10/17 11:59:51;;;;;;;;;10.33;10.33;;;;;24.68;51.65;101944.09;5032014;27;45505;-81
2022/10/17 12:02:45;;;;;;;;;9.00;9.00;;;;;24.71;51.76;101949.22;4979566;27;46376;-80
2022/10/17 12:05:20;;;;;;;;;14.33;10.33;;;;;24.73;51.32;101942.63;5038286;27;45472;-79
2022/10/17 12:08:07;;;;;;;;;9.00;7.67;;;;;24.81;50.38;101957.34;5024541;27;45290;-84
2022/10/17 12:10:55;;;;;;;;;6.67;6.67;;;;;24.92;50.10;101954.47;5002538;28;46454;-76
2022/10/17 12:13:26;;;;;;;;;5.33;5.33;;;;;24.97;50.19;101940.47;5006937;27;45425;-79
2022/10/17 12:15:51;;;;;;;;;6.67;5.67;;;;;24.98;49.59;101931.31;4995499;27;45439;-79
2022/10/17 12:18:17;;;;;;;;;7.67;7.67;;;;;25.05;49.62;101935.13;4988803;27;45457;-80
2022/10/17 12:20:42;;;;;;;;;7.00;7.00;;;;;25.06;49.09;101933.25;4991394;28;46133;-80
2022/10/17 12:23:10;;;;;;;;;6.33;6.00;;;;;25.11;49.19;101930.94;4992821;27;45568;-81
2022/10/17 12:25:58;;;;;;;;;7.00;7.00;;;;;25.11;49.23;101917.38;4989025;27;45498;-84
2022/10/17 12:28:29;;;;;;;;;7.67;6.00;;;;;25.09;49.08;101909.38;4999903;28;45387;-82
2022/10/17 12:31:01;;;;;;;;;9.67;7.00;;;;;25.10;48.90;101924.66;4993745;27;45775;-84
2022/10/17 12:33:33;;;;;;;;;7.67;7.00;;;;;25.06;48.89;101928.66;5005452;28;45527;-81
2022/10/17 12:36:30;;;;;;;;;7.67;7.67;;;;;25.02;49.11;101931.84;4991672;27;45364;-76
2022/10/17 12:39:01;;;;;;;;;7.33;7.33;;;;;25.02;49.21;101935.44;4971057;28;45553;-79
2022/10/17 12:41:39;;;;;;;;;12.00;10.00;;;;;24.99;49.36;101923.00;5036861;28;46305;-78
2022/10/17 12:44:13;;;;;;;;;13.33;10.00;;;;;24.95;49.27;101920.72;4969503;28;45444;-78
2022/10/17 12:47:27;;;;;;;;;12.00;12.00;;;;;24.89;49.42;101921.34;4956375;28;45443;-83
2022/10/17 12:49:53;;;;;;;;;7.00;6.67;;;;;24.85;49.84;101932.47;5016186;28;45528;-84
2022/10/17 12:52:24;;;;;;;;;7.67;7.33;;;;;24.90;49.09;101942.03;5012046;28;45503;-79
2022/10/17 12:54:52;;;;;;;;;10.67;9.00;;;;;24.94;49.66;101936.19;5010708;28;45445;-79
2022/10/17 12:57:30;;;;;;;;;10.00;9.00;;;;;24.88;49.53;101939.47;5012348;28;45432;-80
2022/10/17 12:59:56;;;;;;;;;10.00;8.00;;;;;24.81;49.72;101939.19;5011573;28;45583;-80
2022/10/17 13:02:25;;;;;;;;;11.67;11.00;;;;;24.81;49.40;101932.91;5011872;28;45423;-79
2022/10/17 13:05:07;;;;;;;;;12.33;10.00;;;;;24.79;49.62;101945.75;5010653;28;45805;-79
2022/10/17 13:07:34;;;;;;;;;15.67;14.33;;;;;24.72;50.08;101957.22;5011353;28;45855;-79
2022/10/17 13:10:03;;;;;;;;;14.00;12.33;;;;;24.59;50.27;101943.09;5013763;28;45526;-79
2022/10/17 13:12:33;;;;;;;;;13.67;13.00;;;;;24.53;50.60;101952.72;5025850;28;47136;-75
2022/10/17 13:14:58;;;;;;;;;9.33;9.33;;;;;24.50;50.62;101939.41;5039970;28;45547;-76
2022/10/17 13:17:33;;;;;;;;;10.00;10.00;;;;;24.52;50.76;101945.53;5054523;28;45546;-76
2022/10/17 13:19:59;;;;;;;;;12.00;10.00;;;;;24.53;50.39;101955.44;5053965;28;45609;-76
2022/10/17 13:22:30;;;;;;;;;10.00;9.33;;;;;24.56;50.51;101946.97;5035709;28;45518;-76
2022/10/17 13:25:14;;;;;;;;;8.00;8.00;;;;;24.57;50.02;101937.81;4993484;27;45506;-77
2022/10/17 13:27:40;;;;;;;;;9.00;8.00;;;;;24.54;50.62;101921.84;5048386;27;45364;-82
2022/10/17 13:30:26;;;;;;;;;8.00;8.00;;;;;24.49;50.84;101897.00;5086446;27;45447;-82
2022/10/17 13:32:52;;;;;;;;;11.33;11.33;;;;;24.47;50.69;101912.56;5112414;27;46038;-80
2022/10/17 13:35:34;;;;;;;;;10.67;10.33;;;;;24.46;51.17;101933.44;5002922;27;45422;-81
2022/10/17 13:38:02;;;;;;;;;9.00;8.33;;;;;24.50;51.04;101950.28;5059448;27;45554;-82
2022/10/17 13:40:30;;;;;;;;;12.33;9.33;;;;;24.52;51.31;101947.44;5048155;27;45375;-81
2022/10/17 13:42:57;;;;;;;;;9.00;9.00;;;;;24.53;51.02;101963.56;4990592;27;45410;-78
2022/10/17 13:45:32;;;;;;;;;10.67;7.33;;;;;24.58;51.30;101982.13;5036956;27;45809;-82
2022/10/17 13:48:18;;;;;;;;;9.00;9.00;;;;;24.61;51.20;101982.66;4990537;27;45688;-83
2022/10/17 13:50:47;;;;;;;;;12.33;10.00;;;;;24.65;51.26;101975.13;4994746;27;45332;-80
2022/10/17 13:53:32;;;;;;;;;9.00;9.00;;;;;24.68;51.38;101969.38;4987071;27;47124;-81
2022/10/17 13:56:01;;;;;;;;;12.00;8.67;;;;;24.72;51.42;101972.66;4974454;28;45330;-80
2022/10/17 13:58:40;;;;;;;;;11.67;10.33;;;;;24.74;51.24;101970.66;5002270;27;45456;-78
2022/10/17 14:01:07;;;;;;;;;9.67;9.00;;;;;24.80;51.10;101969.22;5017535;27;45451;-81
2022/10/17 14:03:33;;;;;;;;;8.67;8.67;;;;;24.84;51.04;101962.50;5009600;27;45875;-80
2022/10/17 14:06:03;;;;;;;;;10.00;9.33;;;;;24.87;51.29;101970.34;5026741;27;45482;-82
2022/10/17 14:08:30;;;;;;;;;8.00;7.00;;;;;24.85;51.42;101966.94;5024667;27;45618;-83
2022/10/17 14:10:56;;;;;;;;;8.00;8.00;;;;;24.91;51.34;101968.19;5038350;27;45705;-83
2022/10/17 14:13:34;;;;;;;;;8.67;8.67;;;;;24.93;51.50;101961.59;4987435;27;45453;-83
2022/10/17 14:16:02;;;;;;;;;6.67;6.00;;;;;24.97;50.96;101970.34;5009526;27;45550;-84
2022/10/17 14:18:31;;;;;;;;;7.00;6.67;;;;;25.00;51.15;101972.72;5019537;27;45492;-84
2022/10/17 14:20:57;;;;;;;;;9.33;7.00;;;;;25.03;51.04;101966.16;5022397;27;45405;-88
2022/10/17 14:23:38;;;;;;;;;8.00;8.00;;;;;25.04;51.42;101965.13;4983798;27;45538;-82
2022/10/17 14:26:14;;;;;;;;;8.67;8.67;;;;;25.06;51.51;101966.69;4978059;27;45640;-84
2022/10/17 14:28:42;;;;;;;;;8.33;6.33;;;;;25.06;51.59;101961.25;5022633;27;45520;-78
2022/10/17 14:31:29;;;;;;;;;10.00;9.00;;;;;25.09;51.62;101969.13;5045721;27;45408;-77
2022/10/17 14:33:55;;;;;;;;;8.33;8.00;;;;;25.10;51.10;101957.25;5014103;27;47258;-78
2022/10/17 14:36:31;;;;;;;;;8.00;8.00;;;;;25.12;51.29;101960.69;5050563;27;45575;-79
2022/10/17 14:38:56;;;;;;;;;9.33;9.00;;;;;25.15;51.25;101953.22;5101620;27;45435;-75
2022/10/17 14:41:34;;;;;;;;;6.33;6.00;;;;;25.17;51.07;101952.06;4984678;27;45424;-74
2022/10/17 14:44:05;;;;;;;;;5.00;5.00;;;;;25.18;51.01;101950.22;5089853;27;47231;-76
2022/10/17 14:46:30;;;;;;;;;5.00;4.50;;;;;25.26;50.83;101966.63;4978577;27;45885;-77
2022/10/17 14:49:05;;;;;;;;;6.00;5.33;;;;;25.32;50.38;101965.16;4978112;28;45574;-77
2022/10/17 14:51:32;;;;;;;;;7.67;7.67;;;;;25.29;50.80;101966.31;4979275;27;45597;-76
2022/10/17 14:54:23;;;;;;;;;8.67;8.67;;;;;25.27;50.67;101971.91;4980886;27;46124;-76
2022/10/17 14:56:51;;;;;;;;;7.33;6.67;;;;;25.24;50.69;101979.50;4986025;27;45480;-76
2022/10/17 14:59:21;;;;;;;;;7.67;7.00;;;;;25.23;50.68;101983.22;4982639;27;45748;-77
2022/10/17 15:01:49;;;;;;;;;9.00;7.67;;;;;25.22;50.97;101986.94;4990778;27;45497;-76
2022/10/17 15:04:14;;;;;;;;;7.33;6.33;;;;;25.20;50.72;101983.50;4992480;27;45459;-76
2022/10/17 15:06:40;;;;;;;;;8.33;7.67;;;;;25.18;51.34;101990.97;4981380;27;45440;-77
2022/10/17 15:09:06;;;;;;;;;5.67;5.00;;;;;25.19;51.34;101989.97;4984736;27;45545;-77
2022/10/17 15:11:31;;;;;;;;;8.00;8.00;;;;;25.20;50.91;102002.53;4988570;27;45368;-77
2022/10/17 15:13:57;;;;;;;;;8.00;6.00;;;;;25.17;51.22;101990.09;5017198;27;45658;-76
2022/10/17 15:16:30;;;;;;;;;7.00;6.33;;;;;25.20;51.12;101988.94;4997653;27;45772;-75
2022/10/17 15:18:56;;;;;;;;;6.67;6.67;;;;;25.19;51.31;102001.69;5011553;27;45472;-74
2022/10/17 15:21:23;;;;;;;;;7.00;7.00;;;;;25.17;50.89;101995.53;4973806;27;45448;-74
2022/10/17 15:23:50;;;;;;;;;11.67;8.00;;;;;25.19;50.83;101988.13;5032478;27;45465;-74
2022/10/17 15:26:28;;;;;;;;;7.00;5.33;;;;;25.23;51.32;101991.38;4978928;27;45461;-74
2022/10/17 15:28:54;;;;;;;;;6.67;5.33;;;;;25.25;51.41;101994.78;4974283;27;45498;-75
2022/10/17 15:31:23;;;;;;;;;7.00;6.00;;;;;25.30;50.90;101981.59;4971575;28;45386;-75
2022/10/17 15:33:49;;;;;;;;;8.67;7.00;;;;;25.34;51.20;101968.59;5030208;27;45743;-79
2022/10/17 15:36:21;;;;;;;;;7.00;6.67;;;;;25.36;50.87;101981.03;4980637;28;45910;-77
2022/10/17 15:38:47;;;;;;;;;7.33;7.33;;;;;25.48;51.67;101995.25;4975842;27;45502;-75
2022/10/17 15:41:13;;;;;;;;;9.33;9.00;;;;;25.52;51.13;102001.25;4973816;27;45435;-76
2022/10/17 15:43:38;;;;;;;;;8.00;7.33;;;;;25.46;51.05;102004.56;4981090;27;45489;-78
2022/10/17 15:46:11;;;;;;;;;7.00;7.00;;;;;25.43;51.30;101997.59;5029350;27;56616;-76
2022/10/17 15:48:36;;;;;;;;;7.00;7.00;;;;;25.41;51.32;102004.19;4990553;27;45784;-76
2022/10/17 15:51:01;;;;;;;;;5.67;5.67;;;;;25.37;51.76;102000.88;4991002;27;45430;-77
2022/10/17 15:53:26;;;;;;;;;7.00;7.00;;;;;25.40;51.30;102003.31;5033585;27;56453;-74
2022/10/17 15:55:52;;;;;;;;;7.00;6.00;;;;;25.39;51.30;102002.44;4977076;27;45475;-74
2022/10/17 15:58:18;;;;;;;;;7.00;5.67;;;;;25.43;50.81;101999.44;4982049;27;45380;-73
2022/10/17 16:00:44;;;;;;;;;8.33;8.00;;;;;25.49;50.83;102004.25;5042353;27;45483;-74
2022/10/17 16:03:10;;;;;;;;;9.67;8.00;;;;;25.48;50.12;102000.69;5008658;27;45344;-75
2022/10/17 16:05:35;;;;;;;;;6.33;6.00;;;;;25.51;50.60;102005.81;5004453;27;45434;-73
2022/10/17 16:08:01;;;;;;;;;6.67;6.00;;;;;25.50;50.18;102004.09;4983718;27;45359;-73
2022/10/17 16:10:27;;;;;;;;;8.00;7.67;;;;;25.45;49.98;102000.13;5006863;27;45317;-73
2022/10/17 16:12:52;;;;;;;;;9.00;7.67;;;;;25.40;49.89;102000.59;4991807;27;45485;-75
2022/10/17 16:15:26;;;;;;;;;7.00;5.67;;;;;25.41;49.91;102006.91;4998713;27;45407;-74
2022/10/17 16:17:53;;;;;;;;;7.33;7.33;;;;;25.42;50.15;102004.00;4990758;27;45356;-74
2022/10/17 16:20:19;;;;;;;;;8.33;8.00;;;;;25.39;50.15;102007.03;4983396;27;45368;-74
2022/10/17 16:22:46;;;;;;;;;7.67;6.67;;;;;25.34;50.23;102015.63;4974798;27;45810;-76
2022/10/17 16:25:21;;;;;;;;;7.00;7.00;;;;;25.24;50.02;102010.25;4978862;27;45465;-75